createdAt,value
2018-03-28T00:00:18.235Z,10.77
2018-03-28T00:02:44.267Z,9.73
2018-03-28T00:05:10.286Z,10.13
2018-03-28T00:07:37.157Z,8.60
2018-03-28T00:10:03.967Z,10.93
2018-03-28T00:12:29.981Z,10.17
2018-03-28T00:14:56.010Z,9.87
2018-03-28T00:17:22.284Z,10.67
2018-03-28T00:19:48.550Z,9.80
2018-03-28T00:22:14.586Z,9.67
2018-03-28T00:24:41.356Z,9.50
2018-03-28T00:27:08.166Z,8.70
2018-03-28T00:29:34.511Z,9.63
2018-03-28T00:32:00.520Z,9.50
2018-03-28T00:34:26.580Z,9.37
2018-03-28T00:36:52.637Z,10.27
2018-03-28T00:39:18.921Z,8.77
2018-03-28T00:41:44.930Z,10.43
2018-03-28T00:44:11.688Z,9.03
2018-03-28T00:46:39.663Z,9.07
2018-03-28T00:49:05.801Z,9.10
2018-03-28T00:51:35.786Z,9.07
2018-03-28T00:54:01.840Z,9.13
2018-03-28T00:56:28.236Z,8.50
2018-03-28T00:58:54.273Z,9.87
2018-03-28T01:01:20.508Z,9.70
2018-03-28T01:03:46.515Z,10.00
2018-03-28T01:06:13.051Z,9.77
2018-03-28T01:08:39.115Z,9.40
2018-03-28T01:11:05.883Z,9.50
2018-03-28T01:13:32.667Z,10.50
2018-03-28T01:15:58.687Z,11.07
2018-03-28T01:18:25.047Z,10.73
2018-03-28T01:20:51.099Z,8.97
2018-03-28T01:23:17.147Z,9.73
2018-03-28T01:25:43.966Z,10.07
2018-03-28T01:28:10.015Z,10.37
2018-03-28T01:30:36.163Z,10.00
2018-03-28T01:33:02.197Z,10.03
2018-03-28T01:35:28.263Z,9.67
2018-03-28T01:37:54.285Z,10.33
2018-03-28T01:40:20.327Z,11.00
2018-03-28T01:42:46.364Z,9.83
2018-03-28T01:45:12.383Z,10.83
2018-03-28T01:47:40.525Z,9.90
2018-03-28T01:50:07.312Z,9.80
2018-03-28T01:52:33.343Z,10.40
2018-03-28T01:54:59.370Z,9.60
2018-03-28T01:57:25.896Z,10.20
2018-03-28T01:59:52.250Z,10.47
2018-03-28T02:02:18.279Z,10.20
2018-03-28T02:04:45.077Z,9.70
2018-03-28T02:07:11.109Z,10.50
2018-03-28T02:09:37.142Z,9.63
2018-03-28T02:12:03.205Z,10.23
2018-03-28T02:14:29.221Z,9.80
2018-03-28T02:16:55.236Z,9.87
2018-03-28T02:19:21.265Z,10.03
2018-03-28T02:21:47.288Z,10.10
2018-03-28T02:24:20.932Z,10.20
2018-03-28T02:26:46.935Z,10.23
2018-03-28T02:29:13.730Z,9.57
2018-03-28T02:31:39.772Z,10.30
2018-03-28T02:34:06.116Z,9.27
2018-03-28T02:36:33.139Z,9.30
2018-03-28T02:38:59.587Z,10.20
2018-03-28T02:41:25.616Z,10.50
2018-03-28T02:43:52.417Z,10.50
2018-03-28T02:46:18.436Z,11.00
2018-03-28T02:48:44.467Z,10.20
2018-03-28T02:51:10.486Z,9.60
2018-03-28T02:53:36.851Z,9.90
2018-03-28T02:56:02.887Z,9.33
2018-03-28T02:58:28.919Z,9.60
2018-03-28T03:00:54.968Z,10.00
2018-03-28T03:03:20.988Z,10.07
2018-03-28T03:05:47.020Z,9.73
2018-03-28T03:08:13.062Z,11.07
2018-03-28T03:10:39.087Z,10.30
2018-03-28T03:13:06.280Z,10.80
2018-03-28T03:15:32.318Z,10.10
2018-03-28T03:17:58.361Z,10.43
2018-03-28T03:20:24.369Z,9.90
2018-03-28T03:22:50.407Z,11.23
2018-03-28T03:25:16.442Z,12.60
2018-03-28T03:27:43.739Z,11.20
2018-03-28T03:30:09.826Z,11.13
2018-03-28T03:32:36.571Z,11.57
2018-03-28T03:35:03.392Z,11.20
2018-03-28T03:37:29.442Z,11.50
2018-03-28T03:39:55.474Z,11.00
2018-03-28T03:42:21.512Z,12.13
2018-03-28T03:44:47.560Z,12.90
2018-03-28T03:47:13.560Z,13.07
2018-03-28T03:49:39.851Z,13.30
2018-03-28T03:52:06.139Z,12.87
2018-03-28T03:54:32.555Z,12.07
2018-03-28T03:56:58.838Z,13.30
2018-03-28T03:59:24.868Z,14.20
2018-03-28T04:01:50.892Z,14.13
2018-03-28T04:04:16.949Z,13.60
2018-03-28T04:06:43.148Z,13.57
2018-03-28T04:09:09.163Z,14.57
2018-03-28T04:11:35.965Z,14.27
2018-03-28T04:14:02.544Z,13.80
2018-03-28T04:16:28.562Z,14.90
2018-03-28T04:18:54.587Z,15.73
2018-03-28T04:21:20.610Z,16.47
2018-03-28T04:23:46.627Z,16.50
2018-03-28T04:26:13.636Z,18.33
2018-03-28T04:28:39.639Z,16.67
2018-03-28T04:31:05.676Z,16.30
2018-03-28T04:33:31.744Z,17.77
2018-03-28T04:35:57.746Z,18.63
2018-03-28T04:38:24.103Z,17.20
2018-03-28T04:40:50.222Z,18.70
2018-03-28T04:43:16.249Z,18.23
2018-03-28T04:45:42.437Z,18.03
2018-03-28T04:48:08.452Z,17.83
2018-03-28T04:50:34.506Z,17.67
2018-03-28T04:53:00.728Z,17.93
2018-03-28T04:55:27.059Z,18.30
2018-03-28T04:57:53.063Z,18.27
2018-03-28T05:00:19.532Z,18.50
2018-03-28T05:02:45.515Z,19.10
2018-03-28T05:05:11.539Z,18.73
2018-03-28T05:07:37.582Z,18.70
2018-03-28T05:10:03.734Z,19.73
2018-03-28T05:12:29.817Z,16.77
2018-03-28T05:14:55.855Z,18.47
2018-03-28T05:17:21.892Z,18.40
2018-03-28T05:19:47.932Z,18.40
2018-03-28T05:22:14.283Z,16.87
2018-03-28T05:24:40.381Z,19.67
2018-03-28T05:27:06.460Z,17.60
2018-03-28T05:29:32.692Z,19.73
2018-03-28T05:31:58.722Z,18.00
2018-03-28T05:34:25.566Z,19.23
2018-03-28T05:36:52.336Z,19.70
2018-03-28T05:39:18.369Z,18.80
2018-03-28T05:41:45.212Z,19.10
2018-03-28T05:44:11.279Z,18.10
2018-03-28T05:46:37.328Z,18.80
2018-03-28T05:49:03.448Z,18.50
2018-03-28T05:51:29.478Z,19.00
2018-03-28T05:53:55.499Z,19.10
2018-03-28T05:56:21.859Z,18.60
2018-03-28T05:58:47.881Z,18.30
2018-03-28T06:01:14.700Z,18.90
2018-03-28T06:03:40.803Z,20.30
2018-03-28T06:06:06.877Z,19.20
2018-03-28T06:08:32.910Z,17.80
2018-03-28T06:10:58.975Z,17.70
2018-03-28T06:13:25.758Z,18.80
2018-03-28T06:15:51.908Z,18.57
2018-03-28T06:18:18.094Z,18.57
2018-03-28T06:20:44.223Z,17.87
2018-03-28T06:23:10.255Z,19.67
2018-03-28T06:25:36.443Z,19.27
2018-03-28T06:28:02.557Z,18.67
2018-03-28T06:30:28.639Z,18.50
2018-03-28T06:32:54.691Z,19.63
2018-03-28T06:35:20.806Z,19.60
2018-03-28T06:37:46.835Z,18.70
2018-03-28T06:40:12.892Z,19.97
2018-03-28T06:42:38.951Z,21.50
2018-03-28T06:45:05.128Z,18.87
2018-03-28T06:47:31.971Z,19.50
2018-03-28T06:49:58.024Z,21.67
2018-03-28T06:52:25.211Z,22.40
2018-03-28T06:54:51.735Z,23.43
2018-03-28T06:57:18.531Z,19.13
2018-03-28T06:59:44.589Z,21.30
2018-03-28T07:02:10.619Z,20.70
2018-03-28T07:04:36.655Z,20.30
2018-03-28T07:07:02.760Z,20.20
2018-03-28T07:09:28.799Z,21.77
2018-03-28T07:11:54.828Z,21.30
2018-03-28T07:14:20.937Z,20.27
2018-03-28T07:16:46.967Z,22.10
2018-03-28T07:19:12.991Z,20.40
2018-03-28T07:21:39.189Z,20.87
2018-03-28T07:24:05.248Z,20.80
2018-03-28T07:26:31.335Z,21.53
2018-03-28T07:28:58.135Z,18.83
2018-03-28T07:31:24.231Z,20.40
2018-03-28T07:33:51.080Z,20.03
2018-03-28T07:36:18.235Z,17.87
2018-03-28T07:38:44.263Z,19.73
2018-03-28T07:41:10.266Z,17.70
2018-03-28T07:43:36.310Z,20.10
2018-03-28T07:46:02.351Z,19.10
2018-03-28T07:48:28.378Z,19.77
2018-03-28T07:50:55.166Z,19.47
2018-03-28T07:53:21.203Z,18.00
2018-03-28T07:55:47.337Z,19.80
2018-03-28T07:58:13.352Z,18.63
2018-03-28T08:00:39.458Z,18.90
2018-03-28T08:03:05.518Z,18.23
2018-03-28T08:05:31.552Z,19.33
2018-03-28T08:07:57.563Z,17.20
2018-03-28T08:10:23.991Z,16.80
2018-03-28T08:12:50.755Z,17.63
2018-03-28T08:15:16.822Z,16.50
2018-03-28T08:20:36.651Z,17.60
2018-03-28T08:23:02.744Z,16.50
2018-03-28T08:25:28.810Z,16.40
2018-03-28T08:27:54.862Z,17.07
2018-03-28T08:30:21.166Z,16.10
2018-03-28T08:32:47.221Z,15.63
2018-03-28T08:35:13.203Z,14.80
2018-03-28T08:37:39.416Z,16.23
2018-03-28T08:40:05.479Z,15.50
2018-03-28T08:42:31.522Z,15.50
2018-03-28T08:44:57.562Z,15.23
2018-03-28T08:47:23.615Z,14.63
2018-03-28T08:49:50.360Z,16.20
2018-03-28T08:52:16.602Z,16.00
2018-03-28T08:54:42.634Z,16.67
2018-03-28T08:57:08.688Z,16.43
2018-03-28T08:59:35.473Z,15.20
2018-03-28T09:02:01.491Z,14.57
2018-03-28T09:04:27.516Z,16.00
2018-03-28T09:06:54.323Z,16.90
2018-03-28T09:09:20.392Z,15.93
2018-03-28T09:11:46.630Z,16.43
2018-03-28T09:14:12.668Z,17.43
2018-03-28T09:16:38.758Z,17.50
2018-03-28T09:19:04.814Z,15.87
2018-03-28T09:21:30.837Z,16.20
2018-03-28T09:23:57.845Z,17.33
2018-03-28T09:26:23.876Z,16.87
2018-03-28T09:28:49.891Z,17.30
2018-03-28T09:31:15.942Z,16.97
2018-03-28T09:33:41.974Z,17.90
2018-03-28T09:36:08.005Z,19.33
2018-03-28T09:38:34.828Z,17.27
2018-03-28T09:41:00.860Z,17.60
2018-03-28T09:43:26.912Z,18.10
2018-03-28T09:45:52.978Z,16.00
2018-03-28T09:48:19.029Z,18.23
2018-03-28T09:50:45.041Z,16.77
2018-03-28T09:53:11.075Z,17.00
2018-03-28T09:55:37.121Z,18.30
2018-03-28T09:58:03.207Z,18.70
2018-03-28T10:00:29.428Z,16.97
2018-03-28T10:03:02.395Z,17.40
2018-03-28T10:05:34.675Z,18.77
2018-03-28T10:08:00.766Z,18.03
2018-03-28T10:10:26.838Z,18.10
2018-03-28T10:12:52.878Z,16.23
2018-03-28T10:15:18.962Z,16.77
2018-03-28T10:17:45.015Z,16.80
2018-03-28T10:20:11.143Z,17.57
2018-03-28T10:22:37.210Z,15.47
2018-03-28T10:25:03.339Z,15.23
2018-03-28T10:27:29.411Z,15.47
2018-03-28T10:29:55.449Z,15.77
2018-03-28T10:32:21.504Z,16.07
2018-03-28T10:34:47.647Z,15.17
2018-03-28T10:37:13.688Z,14.70
2018-03-28T10:39:40.457Z,13.57
2018-03-28T10:42:07.312Z,12.80
2018-03-28T10:44:33.283Z,13.67
2018-03-28T10:46:59.328Z,13.30
2018-03-28T10:49:25.521Z,14.97
2018-03-28T10:51:52.361Z,13.80
2018-03-28T10:54:19.141Z,14.43
2018-03-28T10:56:45.279Z,13.63
2018-03-28T10:59:11.306Z,14.37
2018-03-28T11:01:38.094Z,14.60
2018-03-28T11:04:04.156Z,13.90
2018-03-28T11:06:30.190Z,14.30
2018-03-28T11:08:56.207Z,14.63
2018-03-28T11:11:22.270Z,15.63
2018-03-28T11:13:48.314Z,14.90
2018-03-28T11:16:14.351Z,15.27
2018-03-28T11:18:40.397Z,14.47
2018-03-28T11:21:06.449Z,15.03
2018-03-28T11:23:33.211Z,14.50
2018-03-28T11:25:59.277Z,16.30
2018-03-28T11:28:25.264Z,15.87
2018-03-28T11:30:52.057Z,15.10
2018-03-28T11:33:18.132Z,17.60
2018-03-28T11:35:44.151Z,15.70
2018-03-28T11:38:10.263Z,17.23
2018-03-28T11:40:36.344Z,17.00
2018-03-28T11:43:02.612Z,16.27
2018-03-28T11:45:28.745Z,17.00
2018-03-28T11:47:55.103Z,18.30
2018-03-28T11:50:21.855Z,17.17
2018-03-28T11:52:48.609Z,17.70
2018-03-28T11:55:15.436Z,16.43
2018-03-28T11:57:41.452Z,16.57
2018-03-28T12:00:07.482Z,16.30
2018-03-28T12:02:33.709Z,16.03
2018-03-28T12:04:59.782Z,17.50
2018-03-28T12:07:25.844Z,17.30
2018-03-28T12:09:52.739Z,17.97
2018-03-28T12:12:18.807Z,16.20
2018-03-28T12:14:44.851Z,16.40
2018-03-28T12:17:10.970Z,16.30
2018-03-28T12:19:37.138Z,14.80
2018-03-28T12:22:04.131Z,16.33
2018-03-28T12:24:30.234Z,16.53
2018-03-28T12:26:56.285Z,16.97
2018-03-28T12:29:22.335Z,16.30
2018-03-28T12:31:49.488Z,15.10
2018-03-28T12:34:16.266Z,16.43
2018-03-28T12:36:42.258Z,15.93
2018-03-28T12:39:08.649Z,16.50
2018-03-28T12:41:34.699Z,16.43
2018-03-28T12:44:00.734Z,15.07
2018-03-28T12:46:27.039Z,16.27
2018-03-28T12:48:53.802Z,15.30
2018-03-28T12:51:19.827Z,17.23
2018-03-28T12:53:46.634Z,16.77
2018-03-28T12:56:12.646Z,16.33
2018-03-28T12:58:38.733Z,17.40
2018-03-28T13:01:04.888Z,16.40
2018-03-28T13:03:30.928Z,16.50
2018-03-28T13:05:57.711Z,14.90
2018-03-28T13:08:23.743Z,16.43
2018-03-28T13:10:49.790Z,16.53
2018-03-28T13:13:15.794Z,17.23
2018-03-28T13:15:42.562Z,15.60
2018-03-28T13:18:08.622Z,15.90
2018-03-28T13:20:34.663Z,17.20
2018-03-28T13:23:00.699Z,17.43
2018-03-28T13:25:26.896Z,16.70
2018-03-28T13:27:53.651Z,15.80
2018-03-28T13:30:20.430Z,16.27
2018-03-28T13:32:46.471Z,16.40
2018-03-28T13:35:12.494Z,17.20
2018-03-28T13:37:38.542Z,17.10
2018-03-28T13:40:04.579Z,16.63
2018-03-28T13:42:30.589Z,17.20
2018-03-28T13:44:57.373Z,17.37
2018-03-28T13:47:23.382Z,17.73
2018-03-28T13:49:50.152Z,17.10
2018-03-28T13:52:16.150Z,17.80
2018-03-28T13:54:42.226Z,17.63
2018-03-28T13:57:08.292Z,18.63
2018-03-28T13:59:34.360Z,18.87
2018-03-28T14:02:00.400Z,17.80
2018-03-28T14:04:26.468Z,17.80
2018-03-28T14:06:52.482Z,17.40
2018-03-28T14:09:19.355Z,17.20
2018-03-28T14:11:46.119Z,17.80
2018-03-28T14:14:12.122Z,17.67
2018-03-28T14:16:38.146Z,19.60
2018-03-28T14:19:04.216Z,19.83
2018-03-28T14:21:30.964Z,18.50
2018-03-28T14:23:57.721Z,18.50
2018-03-28T14:26:23.738Z,18.80
2018-03-28T14:28:50.519Z,21.10
2018-03-28T14:31:17.307Z,18.53
2018-03-28T14:33:43.331Z,21.40
2018-03-28T14:36:09.393Z,21.10
2018-03-28T14:38:35.458Z,19.37
2018-03-28T14:41:01.476Z,20.47
2018-03-28T14:43:27.482Z,21.17
2018-03-28T14:45:53.786Z,20.77
2018-03-28T14:48:20.534Z,20.83
2018-03-28T14:50:47.274Z,19.53
2018-03-28T14:53:13.288Z,19.83
2018-03-28T14:55:39.344Z,23.80
2018-03-28T14:58:05.364Z,21.80
2018-03-28T15:00:31.417Z,21.80
2018-03-28T15:02:57.420Z,20.90
2018-03-28T15:05:23.442Z,21.07
2018-03-28T15:07:49.479Z,21.77
2018-03-28T15:10:15.534Z,22.80
2018-03-28T15:12:42.352Z,20.93
2018-03-28T15:15:08.415Z,20.00
2018-03-28T15:17:34.563Z,20.40
2018-03-28T15:20:00.950Z,21.20
2018-03-28T15:22:27.712Z,21.27
2018-03-28T15:24:53.722Z,22.00
2018-03-28T15:27:19.850Z,23.13
2018-03-28T15:29:45.878Z,22.67
2018-03-28T15:32:11.906Z,20.30
2018-03-28T15:34:37.920Z,23.40
2018-03-28T15:37:03.979Z,23.13
2018-03-28T15:39:30.032Z,23.73
2018-03-28T15:41:56.027Z,20.70
2018-03-28T15:44:22.102Z,25.20
2018-03-28T15:46:48.140Z,22.60
2018-03-28T15:49:14.183Z,24.13
2018-03-28T15:51:40.211Z,23.60
2018-03-28T15:54:06.280Z,26.57
2018-03-28T15:56:33.130Z,24.40
2018-03-28T15:58:59.187Z,23.93
2018-03-28T16:01:25.180Z,25.80
2018-03-28T16:03:51.275Z,24.27
2018-03-28T16:06:17.311Z,25.43
2018-03-28T16:08:43.484Z,25.77
2018-03-28T16:11:09.489Z,25.83
2018-03-28T16:13:36.277Z,23.97
2018-03-28T16:16:02.360Z,27.00
2018-03-28T16:18:29.126Z,31.00
2018-03-28T16:20:55.160Z,27.20
2018-03-28T16:23:21.914Z,27.57
2018-03-28T16:25:47.975Z,25.73
2018-03-28T16:28:14.018Z,26.93
2018-03-28T16:30:40.060Z,26.07
2018-03-28T16:33:06.347Z,26.50
2018-03-28T16:35:33.193Z,28.30
2018-03-28T16:37:59.213Z,28.93
2018-03-28T16:40:25.239Z,27.57
2018-03-28T16:42:51.619Z,26.77
2018-03-28T16:45:18.402Z,28.70
2018-03-28T16:47:44.433Z,26.77
2018-03-28T16:50:10.443Z,26.60
2018-03-28T16:52:36.475Z,27.67
2018-03-28T16:55:02.692Z,28.00
2018-03-28T16:57:29.305Z,26.70
2018-03-28T16:59:55.363Z,26.80
2018-03-28T17:02:21.396Z,24.97
2018-03-28T17:04:47.686Z,26.53
2018-03-28T17:07:14.613Z,26.17
2018-03-28T17:09:40.906Z,26.50
2018-03-28T17:12:07.104Z,28.00
2018-03-28T17:14:33.196Z,27.30
2018-03-28T17:16:59.289Z,26.50
2018-03-28T17:19:25.443Z,25.67
2018-03-28T17:21:51.407Z,25.53
2018-03-28T17:24:17.411Z,24.30
2018-03-28T17:26:43.444Z,25.63
2018-03-28T17:29:09.491Z,25.90
2018-03-28T17:31:36.234Z,25.70
2018-03-28T17:34:02.338Z,24.97
2018-03-28T17:36:28.335Z,26.73
2018-03-28T17:38:54.388Z,24.77
2018-03-28T17:41:20.409Z,27.30
2018-03-28T17:43:46.430Z,27.47
2018-03-28T17:46:13.401Z,29.53
2018-03-28T17:48:39.476Z,28.97
2018-03-28T17:51:06.244Z,28.13
2018-03-28T17:53:32.834Z,27.20
2018-03-28T17:55:59.625Z,27.27
2018-03-28T17:58:25.691Z,25.40
2018-03-28T18:00:51.738Z,25.30
2018-03-28T18:03:17.835Z,28.70
2018-03-28T18:05:43.914Z,27.40
2018-03-28T18:08:09.974Z,24.83
2018-03-28T18:10:36.790Z,25.73
2018-03-28T18:13:02.818Z,24.77
2018-03-28T18:15:28.848Z,27.10
2018-03-28T18:17:54.925Z,25.70
2018-03-28T18:20:20.968Z,26.43
2018-03-28T18:22:47.708Z,25.00
2018-03-28T18:25:13.757Z,24.90
2018-03-28T18:27:40.535Z,26.37
2018-03-28T18:30:06.567Z,26.03
2018-03-28T18:32:32.599Z,26.80
2018-03-28T18:34:58.638Z,28.10
2018-03-28T18:37:24.666Z,27.67
2018-03-28T18:39:50.690Z,31.00
2018-03-28T18:42:16.736Z,27.87
2018-03-28T18:44:43.499Z,30.17
2018-03-28T18:47:09.555Z,27.83
2018-03-28T18:49:35.602Z,27.90
2018-03-28T18:52:01.623Z,27.63
2018-03-28T18:54:27.652Z,31.57
2018-03-28T18:56:53.682Z,31.40
2018-03-28T18:59:19.691Z,31.37
2018-03-28T19:01:45.745Z,31.30
2018-03-28T19:04:11.750Z,31.57
2018-03-28T19:06:37.760Z,29.17
2018-03-28T19:09:03.834Z,29.47
2018-03-28T19:11:30.126Z,30.13
2018-03-28T19:13:56.137Z,29.37
2018-03-28T19:16:22.924Z,29.00
2018-03-28T19:18:48.939Z,30.10
2018-03-28T19:21:14.975Z,30.47
2018-03-28T19:23:41.694Z,28.27
2018-03-28T19:26:07.726Z,29.20
2018-03-28T19:28:33.739Z,29.07
2018-03-28T19:30:59.742Z,28.40
2018-03-28T19:33:25.755Z,31.90
2018-03-28T19:35:52.518Z,25.60
2018-03-28T19:38:18.545Z,26.60
2018-03-28T19:40:44.561Z,26.80
2018-03-28T19:43:10.585Z,25.00
2018-03-28T19:45:36.635Z,26.90
2018-03-28T19:48:02.684Z,25.77
2018-03-28T19:50:29.506Z,26.30
2018-03-28T19:52:55.530Z,27.23
2018-03-28T19:55:21.554Z,27.67
2018-03-28T19:57:47.572Z,28.40
2018-03-28T20:00:13.590Z,27.13
2018-03-28T20:02:40.341Z,27.73
2018-03-28T20:05:07.261Z,29.07
2018-03-28T20:07:34.040Z,28.50
2018-03-28T20:10:00.080Z,30.13
2018-03-28T20:12:26.894Z,28.90
2018-03-28T20:14:53.756Z,28.20
2018-03-28T20:17:19.774Z,27.07
2018-03-28T20:19:46.054Z,27.20
2018-03-28T20:22:12.830Z,28.83
2018-03-28T20:24:39.611Z,29.03
2018-03-28T20:27:05.712Z,28.50
2018-03-28T20:29:32.471Z,29.90
2018-03-28T20:31:59.222Z,30.33
2018-03-28T20:34:25.306Z,27.83
2018-03-28T20:36:51.352Z,27.87
2018-03-28T20:39:18.310Z,29.30
2018-03-28T20:41:44.642Z,29.83
2018-03-28T20:44:10.999Z,30.03
2018-03-28T20:46:37.068Z,29.40
2018-03-28T20:49:03.148Z,28.70
2018-03-28T20:51:29.300Z,27.93
2018-03-28T20:53:55.363Z,29.77
2018-03-28T20:56:21.459Z,28.40
2018-03-28T20:58:47.630Z,29.37
2018-03-28T21:01:13.671Z,31.30
2018-03-28T21:03:39.730Z,29.20
2018-03-28T21:06:05.857Z,30.03
2018-03-28T21:08:32.633Z,29.30
2018-03-28T21:10:58.981Z,29.90
2018-03-28T21:13:25.002Z,29.63
2018-03-28T21:15:51.072Z,29.50
2018-03-28T21:18:17.898Z,28.57
2018-03-28T21:20:43.936Z,28.73
2018-03-28T21:23:09.966Z,28.20
2018-03-28T21:25:36.232Z,26.90
2018-03-28T21:28:03.027Z,26.67
2018-03-28T21:30:29.059Z,31.60
2018-03-28T21:32:55.154Z,28.47
2018-03-28T21:35:21.233Z,27.57
2018-03-28T21:37:47.266Z,26.70
2018-03-28T21:40:13.393Z,26.87
2018-03-28T21:42:39.400Z,25.53
2018-03-28T21:45:05.434Z,26.27
2018-03-28T21:47:31.459Z,29.23
2018-03-28T21:49:57.464Z,27.80
2018-03-28T21:52:23.506Z,26.50
2018-03-28T21:54:49.626Z,28.37
2018-03-28T21:57:15.649Z,27.37
2018-03-28T21:59:42.395Z,28.90
2018-03-28T22:02:09.966Z,26.70
2018-03-28T22:04:36.720Z,27.43
2018-03-28T22:07:03.494Z,24.87
2018-03-28T22:09:29.533Z,27.03
2018-03-28T22:11:55.555Z,24.90
2018-03-28T22:14:21.582Z,25.80
2018-03-28T22:16:48.386Z,25.60
2018-03-28T22:19:14.383Z,25.80
2018-03-28T22:21:40.471Z,25.80
2018-03-28T22:24:06.524Z,25.17
2018-03-28T22:26:32.559Z,24.83
2018-03-28T22:28:58.583Z,26.60
2018-03-28T22:31:24.653Z,25.30
2018-03-28T22:33:50.682Z,25.20
2018-03-28T22:36:16.710Z,25.73
2018-03-28T22:38:42.756Z,24.37
2018-03-28T22:41:09.505Z,25.70
2018-03-28T22:43:36.254Z,26.67
2018-03-28T22:46:03.050Z,27.53
2018-03-28T22:48:29.067Z,24.17
2018-03-28T22:50:55.087Z,26.20
2018-03-28T22:53:21.844Z,25.00
2018-03-28T22:55:55.530Z,24.47
2018-03-28T22:58:21.758Z,24.47
2018-03-28T23:00:48.529Z,24.10
2018-03-28T23:03:14.575Z,22.63
2018-03-28T23:05:40.701Z,22.63
2018-03-28T23:08:06.731Z,25.03
2018-03-28T23:10:33.085Z,23.50
2018-03-28T23:12:59.175Z,22.53
2018-03-28T23:15:25.206Z,23.33
2018-03-28T23:17:51.231Z,22.67
2018-03-28T23:20:18.043Z,20.77
2018-03-28T23:22:44.066Z,21.97
2018-03-28T23:25:10.089Z,22.07
2018-03-28T23:27:36.158Z,21.20
2018-03-28T23:30:02.190Z,21.73
2018-03-28T23:32:28.207Z,20.83
2018-03-28T23:34:55.031Z,21.17
2018-03-28T23:37:21.030Z,22.10
2018-03-28T23:39:47.084Z,21.73
2018-03-28T23:42:13.882Z,19.87
2018-03-28T23:44:39.945Z,21.60
2018-03-28T23:47:06.426Z,19.67
2018-03-28T23:49:33.202Z,18.33
2018-03-28T23:51:59.274Z,20.37
2018-03-28T23:54:25.307Z,18.30
2018-03-28T23:56:51.371Z,19.10
2018-03-28T23:59:17.398Z,19.07
